sensor_id;sensor_type;location;lat;lon;timestamp;P1;durP1;ratioP1;P2;durP2;ratioP2
20699;SDS011;10511;51.232;9.420;2024-01-30T00:01:17;1.23;;;1.23;;
20699;SDS011;10511;51.232;9.420;2024-01-30T00:03:44;1.30;;;1.30;;
20699;SDS011;10511;51.232;9.420;2024-01-30T00:06:12;1.30;;;1.30;;
20699;SDS011;10511;51.232;9.420;2024-01-30T00:08:39;1.20;;;1.20;;
20699;SDS011;10511;51.232;9.420;2024-01-30T00:11:07;1.30;;;1.30;;
20699;SDS011;10511;51.232;9.420;2024-01-30T00:13:34;1.30;;;1.30;;
20699;SDS011;10511;51.232;9.420;2024-01-30T00:16:01;1.30;;;1.30;;
20699;SDS011;10511;51.232;9.420;2024-01-30T00:18:29;1.27;;;1.27;;
20699;SDS011;10511;51.232;9.420;2024-01-30T00:20:56;1.20;;;1.20;;
20699;SDS011;10511;51.232;9.420;2024-01-30T00:23:24;1.30;;;1.30;;
20699;SDS011;10511;51.232;9.420;2024-01-30T00:25:51;1.23;;;1.23;;
20699;SDS011;10511;51.232;9.420;2024-01-30T00:28:18;1.30;;;1.30;;
20699;SDS011;10511;51.232;9.420;2024-01-30T00:30:45;1.30;;;1.30;;
20699;SDS011;10511;51.232;9.420;2024-01-30T00:33:11;1.30;;;1.30;;
20699;SDS011;10511;51.232;9.420;2024-01-30T00:35:38;1.30;;;1.30;;
20699;SDS011;10511;51.232;9.420;2024-01-30T00:38:05;1.30;;;1.30;;
20699;SDS011;10511;51.232;9.420;2024-01-30T00:40:34;1.30;;;1.30;;
20699;SDS011;10511;51.232;9.420;2024-01-30T00:43:01;1.43;;;1.43;;
20699;SDS011;10511;51.232;9.420;2024-01-30T00:45:28;1.40;;;1.40;;
20699;SDS011;10511;51.232;9.420;2024-01-30T00:47:54;1.30;;;1.30;;
20699;SDS011;10511;51.232;9.420;2024-01-30T00:50:21;1.30;;;1.30;;
20699;SDS011;10511;51.232;9.420;2024-01-30T00:52:48;1.30;;;1.30;;
20699;SDS011;10511;51.232;9.420;2024-01-30T00:55:15;1.30;;;1.30;;
20699;SDS011;10511;51.232;9.420;2024-01-30T00:57:43;1.30;;;1.30;;
20699;SDS011;10511;51.232;9.420;2024-01-30T01:00:11;1.30;;;1.30;;
20699;SDS011;10511;51.232;9.420;2024-01-30T01:02:41;1.30;;;1.30;;
20699;SDS011;10511;51.232;9.420;2024-01-30T01:05:07;1.30;;;1.30;;
20699;SDS011;10511;51.232;9.420;2024-01-30T01:07:35;1.20;;;1.20;;
20699;SDS011;10511;51.232;9.420;2024-01-30T01:10:02;1.27;;;1.27;;
20699;SDS011;10511;51.232;9.420;2024-01-30T01:12:29;1.30;;;1.30;;
20699;SDS011;10511;51.232;9.420;2024-01-30T01:14:57;1.13;;;1.13;;
20699;SDS011;10511;51.232;9.420;2024-01-30T01:17:24;1.20;;;1.20;;
20699;SDS011;10511;51.232;9.420;2024-01-30T01:19:51;1.20;;;1.20;;
20699;SDS011;10511;51.232;9.420;2024-01-30T01:22:17;1.20;;;1.20;;
20699;SDS011;10511;51.232;9.420;2024-01-30T01:24:44;1.20;;;1.20;;
20699;SDS011;10511;51.232;9.420;2024-01-30T01:27:11;1.20;;;1.20;;
20699;SDS011;10511;51.232;9.420;2024-01-30T01:29:38;1.30;;;1.30;;
20699;SDS011;10511;51.232;9.420;2024-01-30T01:32:06;1.30;;;1.30;;
20699;SDS011;10511;51.232;9.420;2024-01-30T01:34:33;1.20;;;1.20;;
20699;SDS011;10511;51.232;9.420;2024-01-30T01:37:00;1.20;;;1.20;;
20699;SDS011;10511;51.232;9.420;2024-01-30T01:39:27;1.20;;;1.20;;
20699;SDS011;10511;51.232;9.420;2024-01-30T01:41:53;1.30;;;1.30;;
20699;SDS011;10511;51.232;9.420;2024-01-30T01:44:20;1.40;;;1.40;;
20699;SDS011;10511;51.232;9.420;2024-01-30T01:46:47;1.30;;;1.30;;
20699;SDS011;10511;51.232;9.420;2024-01-30T01:49:15;1.50;;;1.50;;
20699;SDS011;10511;51.232;9.420;2024-01-30T01:51:42;1.40;;;1.40;;
20699;SDS011;10511;51.232;9.420;2024-01-30T01:54:10;1.50;;;1.50;;
20699;SDS011;10511;51.232;9.420;2024-01-30T01:56:38;1.43;;;1.43;;
20699;SDS011;10511;51.232;9.420;2024-01-30T01:59:05;1.40;;;1.40;;
20699;SDS011;10511;51.232;9.420;2024-01-30T02:01:33;1.30;;;1.30;;
20699;SDS011;10511;51.232;9.420;2024-01-30T02:04:02;1.33;;;1.33;;
20699;SDS011;10511;51.232;9.420;2024-01-30T02:06:31;1.40;;;1.40;;
20699;SDS011;10511;51.232;9.420;2024-01-30T02:08:59;1.40;;;1.40;;
20699;SDS011;10511;51.232;9.420;2024-01-30T02:11:26;1.50;;;1.50;;
20699;SDS011;10511;51.232;9.420;2024-01-30T02:13:54;1.30;;;1.30;;
20699;SDS011;10511;51.232;9.420;2024-01-30T02:16:21;1.50;;;1.50;;
20699;SDS011;10511;51.232;9.420;2024-01-30T02:18:48;1.50;;;1.50;;
20699;SDS011;10511;51.232;9.420;2024-01-30T02:21:16;1.50;;;1.50;;
20699;SDS011;10511;51.232;9.420;2024-01-30T02:23:44;1.50;;;1.50;;
20699;SDS011;10511;51.232;9.420;2024-01-30T02:26:13;1.50;;;1.50;;
20699;SDS011;10511;51.232;9.420;2024-01-30T02:28:40;1.50;;;1.50;;
20699;SDS011;10511;51.232;9.420;2024-01-30T02:31:07;1.40;;;1.40;;
20699;SDS011;10511;51.232;9.420;2024-01-30T02:33:33;1.50;;;1.50;;
20699;SDS011;10511;51.232;9.420;2024-01-30T02:36:00;1.50;;;1.50;;
20699;SDS011;10511;51.232;9.420;2024-01-30T02:38:28;1.50;;;1.50;;
20699;SDS011;10511;51.232;9.420;2024-01-30T02:40:55;1.50;;;1.50;;
20699;SDS011;10511;51.232;9.420;2024-01-30T02:43:22;1.60;;;1.60;;
20699;SDS011;10511;51.232;9.420;2024-01-30T02:45:49;1.67;;;1.67;;
20699;SDS011;10511;51.232;9.420;2024-01-30T02:48:16;1.50;;;1.50;;
20699;SDS011;10511;51.232;9.420;2024-01-30T02:50:43;1.50;;;1.50;;
20699;SDS011;10511;51.232;9.420;2024-01-30T02:53:11;1.50;;;1.50;;
20699;SDS011;10511;51.232;9.420;2024-01-30T02:55:39;1.57;;;1.57;;
20699;SDS011;10511;51.232;9.420;2024-01-30T02:58:06;1.50;;;1.50;;
20699;SDS011;10511;51.232;9.420;2024-01-30T03:00:33;1.40;;;1.40;;
20699;SDS011;10511;51.232;9.420;2024-01-30T03:03:00;1.50;;;1.50;;
20699;SDS011;10511;51.232;9.420;2024-01-30T03:05:27;1.50;;;1.50;;
20699;SDS011;10511;51.232;9.420;2024-01-30T03:07:54;1.47;;;1.47;;
20699;SDS011;10511;51.232;9.420;2024-01-30T03:10:21;1.43;;;1.43;;
20699;SDS011;10511;51.232;9.420;2024-01-30T03:12:49;1.40;;;1.40;;
20699;SDS011;10511;51.232;9.420;2024-01-30T03:15:16;1.40;;;1.40;;
20699;SDS011;10511;51.232;9.420;2024-01-30T03:17:42;1.40;;;1.40;;
20699;SDS011;10511;51.232;9.420;2024-01-30T03:20:10;1.40;;;1.40;;
20699;SDS011;10511;51.232;9.420;2024-01-30T03:22:37;1.50;;;1.50;;
20699;SDS011;10511;51.232;9.420;2024-01-30T03:25:04;1.40;;;1.40;;
20699;SDS011;10511;51.232;9.420;2024-01-30T03:27:31;1.40;;;1.40;;
20699;SDS011;10511;51.232;9.420;2024-01-30T03:29:59;1.50;;;1.50;;
20699;SDS011;10511;51.232;9.420;2024-01-30T03:32:26;1.50;;;1.50;;
20699;SDS011;10511;51.232;9.420;2024-01-30T03:34:53;1.50;;;1.50;;
20699;SDS011;10511;51.232;9.420;2024-01-30T03:37:20;1.43;;;1.43;;
20699;SDS011;10511;51.232;9.420;2024-01-30T03:39:47;1.50;;;1.50;;
20699;SDS011;10511;51.232;9.420;2024-01-30T03:42:14;1.50;;;1.50;;
20699;SDS011;10511;51.232;9.420;2024-01-30T03:44:41;1.37;;;1.37;;
20699;SDS011;10511;51.232;9.420;2024-01-30T03:47:10;1.50;;;1.50;;
20699;SDS011;10511;51.232;9.420;2024-01-30T03:49:37;1.40;;;1.40;;
20699;SDS011;10511;51.232;9.420;2024-01-30T03:52:03;1.47;;;1.47;;
20699;SDS011;10511;51.232;9.420;2024-01-30T03:54:30;1.50;;;1.50;;
20699;SDS011;10511;51.232;9.420;2024-01-30T03:56:57;1.50;;;1.50;;
20699;SDS011;10511;51.232;9.420;2024-01-30T03:59:24;1.30;;;1.30;;
20699;SDS011;10511;51.232;9.420;2024-01-30T04:01:51;1.40;;;1.40;;
20699;SDS011;10511;51.232;9.420;2024-01-30T04:04:19;1.37;;;1.37;;
20699;SDS011;10511;51.232;9.420;2024-01-30T04:06:46;1.40;;;1.40;;
20699;SDS011;10511;51.232;9.420;2024-01-30T04:09:13;1.30;;;1.30;;
20699;SDS011;10511;51.232;9.420;2024-01-30T04:11:41;1.30;;;1.30;;
20699;SDS011;10511;51.232;9.420;2024-01-30T04:14:10;1.40;;;1.40;;
20699;SDS011;10511;51.232;9.420;2024-01-30T04:16:37;1.40;;;1.40;;
20699;SDS011;10511;51.232;9.420;2024-01-30T04:19:04;1.40;;;1.40;;
20699;SDS011;10511;51.232;9.420;2024-01-30T04:21:32;1.30;;;1.30;;
20699;SDS011;10511;51.232;9.420;2024-01-30T04:23:59;1.40;;;1.40;;
20699;SDS011;10511;51.232;9.420;2024-01-30T04:26:26;1.40;;;1.40;;
20699;SDS011;10511;51.232;9.420;2024-01-30T04:28:53;1.30;;;1.30;;
20699;SDS011;10511;51.232;9.420;2024-01-30T04:31:20;1.40;;;1.40;;
20699;SDS011;10511;51.232;9.420;2024-01-30T04:33:47;1.40;;;1.40;;
20699;SDS011;10511;51.232;9.420;2024-01-30T04:36:14;1.40;;;1.40;;
20699;SDS011;10511;51.232;9.420;2024-01-30T04:38:42;1.30;;;1.30;;
20699;SDS011;10511;51.232;9.420;2024-01-30T04:41:09;1.30;;;1.30;;
20699;SDS011;10511;51.232;9.420;2024-01-30T04:43:36;1.40;;;1.40;;
20699;SDS011;10511;51.232;9.420;2024-01-30T04:46:03;1.40;;;1.40;;
20699;SDS011;10511;51.232;9.420;2024-01-30T04:48:31;1.30;;;1.30;;
20699;SDS011;10511;51.232;9.420;2024-01-30T04:50:58;1.40;;;1.40;;
20699;SDS011;10511;51.232;9.420;2024-01-30T04:53:27;1.40;;;1.40;;
20699;SDS011;10511;51.232;9.420;2024-01-30T04:55:57;1.47;;;1.47;;
20699;SDS011;10511;51.232;9.420;2024-01-30T04:58:24;1.40;;;1.40;;
20699;SDS011;10511;51.232;9.420;2024-01-30T05:00:50;1.40;;;1.40;;
20699;SDS011;10511;51.232;9.420;2024-01-30T05:03:18;1.30;;;1.30;;
20699;SDS011;10511;51.232;9.420;2024-01-30T05:05:45;1.30;;;1.30;;
20699;SDS011;10511;51.232;9.420;2024-01-30T05:08:12;1.40;;;1.40;;
20699;SDS011;10511;51.232;9.420;2024-01-30T05:10:39;1.30;;;1.30;;
20699;SDS011;10511;51.232;9.420;2024-01-30T05:13:07;1.40;;;1.40;;
20699;SDS011;10511;51.232;9.420;2024-01-30T05:15:34;1.37;;;1.37;;
20699;SDS011;10511;51.232;9.420;2024-01-30T05:18:00;1.40;;;1.40;;
20699;SDS011;10511;51.232;9.420;2024-01-30T05:20:28;1.40;;;1.40;;
20699;SDS011;10511;51.232;9.420;2024-01-30T05:22:55;1.40;;;1.40;;
20699;SDS011;10511;51.232;9.420;2024-01-30T05:25:22;1.40;;;1.40;;
20699;SDS011;10511;51.232;9.420;2024-01-30T05:27:49;1.30;;;1.30;;
20699;SDS011;10511;51.232;9.420;2024-01-30T05:30:17;1.40;;;1.40;;
20699;SDS011;10511;51.232;9.420;2024-01-30T05:32:44;1.30;;;1.30;;
20699;SDS011;10511;51.232;9.420;2024-01-30T05:35:11;1.40;;;1.40;;
20699;SDS011;10511;51.232;9.420;2024-01-30T05:37:38;1.40;;;1.40;;
20699;SDS011;10511;51.232;9.420;2024-01-30T05:40:05;1.40;;;1.40;;
20699;SDS011;10511;51.232;9.420;2024-01-30T05:42:33;1.30;;;1.30;;
20699;SDS011;10511;51.232;9.420;2024-01-30T05:45:00;1.43;;;1.43;;
20699;SDS011;10511;51.232;9.420;2024-01-30T05:47:29;1.50;;;1.50;;
20699;SDS011;10511;51.232;9.420;2024-01-30T05:49:59;1.40;;;1.40;;
20699;SDS011;10511;51.232;9.420;2024-01-30T05:52:25;1.40;;;1.40;;
20699;SDS011;10511;51.232;9.420;2024-01-30T05:54:52;1.40;;;1.40;;
20699;SDS011;10511;51.232;9.420;2024-01-30T05:57:19;1.40;;;1.40;;
20699;SDS011;10511;51.232;9.420;2024-01-30T05:59:46;1.40;;;1.40;;
20699;SDS011;10511;51.232;9.420;2024-01-30T06:02:13;1.50;;;1.50;;
20699;SDS011;10511;51.232;9.420;2024-01-30T06:04:41;1.50;;;1.50;;
20699;SDS011;10511;51.232;9.420;2024-01-30T06:07:09;1.50;;;1.50;;
20699;SDS011;10511;51.232;9.420;2024-01-30T06:09:36;1.40;;;1.40;;
20699;SDS011;10511;51.232;9.420;2024-01-30T06:12:04;1.47;;;1.47;;
20699;SDS011;10511;51.232;9.420;2024-01-30T06:14:32;1.50;;;1.50;;
20699;SDS011;10511;51.232;9.420;2024-01-30T06:16:59;1.60;;;1.60;;
20699;SDS011;10511;51.232;9.420;2024-01-30T06:19:25;1.60;;;1.60;;
20699;SDS011;10511;51.232;9.420;2024-01-30T06:21:53;1.57;;;1.57;;
20699;SDS011;10511;51.232;9.420;2024-01-30T06:24:20;1.50;;;1.50;;
20699;SDS011;10511;51.232;9.420;2024-01-30T06:26:47;1.50;;;1.50;;
20699;SDS011;10511;51.232;9.420;2024-01-30T06:29:14;1.40;;;1.40;;
20699;SDS011;10511;51.232;9.420;2024-01-30T06:31:41;1.50;;;1.50;;
20699;SDS011;10511;51.232;9.420;2024-01-30T06:34:09;1.50;;;1.50;;
20699;SDS011;10511;51.232;9.420;2024-01-30T06:36:37;1.50;;;1.50;;
20699;SDS011;10511;51.232;9.420;2024-01-30T06:39:05;1.50;;;1.50;;
20699;SDS011;10511;51.232;9.420;2024-01-30T06:41:32;1.40;;;1.40;;
20699;SDS011;10511;51.232;9.420;2024-01-30T06:43:59;1.50;;;1.50;;
20699;SDS011;10511;51.232;9.420;2024-01-30T06:46:27;1.30;;;1.30;;
20699;SDS011;10511;51.232;9.420;2024-01-30T06:48:54;1.50;;;1.50;;
20699;SDS011;10511;51.232;9.420;2024-01-30T06:51:21;1.50;;;1.50;;
20699;SDS011;10511;51.232;9.420;2024-01-30T06:53:48;1.40;;;1.40;;
20699;SDS011;10511;51.232;9.420;2024-01-30T06:56:16;1.60;;;1.60;;
20699;SDS011;10511;51.232;9.420;2024-01-30T06:58:46;1.50;;;1.50;;
20699;SDS011;10511;51.232;9.420;2024-01-30T07:01:13;1.60;;;1.60;;
20699;SDS011;10511;51.232;9.420;2024-01-30T07:03:40;1.50;;;1.50;;
20699;SDS011;10511;51.232;9.420;2024-01-30T07:06:07;1.50;;;1.50;;
20699;SDS011;10511;51.232;9.420;2024-01-30T07:08:34;1.53;;;1.53;;
20699;SDS011;10511;51.232;9.420;2024-01-30T07:11:01;1.50;;;1.50;;
20699;SDS011;10511;51.232;9.420;2024-01-30T07:13:29;1.60;;;1.60;;
20699;SDS011;10511;51.232;9.420;2024-01-30T07:15:56;1.50;;;1.50;;
20699;SDS011;10511;51.232;9.420;2024-01-30T07:18:22;1.50;;;1.50;;
20699;SDS011;10511;51.232;9.420;2024-01-30T07:20:49;1.40;;;1.40;;
20699;SDS011;10511;51.232;9.420;2024-01-30T07:23:16;1.50;;;1.50;;
20699;SDS011;10511;51.232;9.420;2024-01-30T07:25:43;1.50;;;1.50;;
20699;SDS011;10511;51.232;9.420;2024-01-30T07:28:11;1.50;;;1.50;;
20699;SDS011;10511;51.232;9.420;2024-01-30T07:30:40;1.50;;;1.50;;
20699;SDS011;10511;51.232;9.420;2024-01-30T07:33:07;1.57;;;1.57;;
20699;SDS011;10511;51.232;9.420;2024-01-30T07:35:34;1.40;;;1.40;;
20699;SDS011;10511;51.232;9.420;2024-01-30T07:38:01;1.50;;;1.50;;
20699;SDS011;10511;51.232;9.420;2024-01-30T07:40:28;1.50;;;1.50;;
20699;SDS011;10511;51.232;9.420;2024-01-30T07:42:55;1.50;;;1.50;;
20699;SDS011;10511;51.232;9.420;2024-01-30T07:45:22;1.50;;;1.50;;
20699;SDS011;10511;51.232;9.420;2024-01-30T07:47:51;1.53;;;1.53;;
20699;SDS011;10511;51.232;9.420;2024-01-30T07:50:18;1.50;;;1.50;;
20699;SDS011;10511;51.232;9.420;2024-01-30T07:52:45;1.47;;;1.47;;
20699;SDS011;10511;51.232;9.420;2024-01-30T07:55:16;1.40;;;1.40;;
20699;SDS011;10511;51.232;9.420;2024-01-30T07:57:44;1.50;;;1.50;;
20699;SDS011;10511;51.232;9.420;2024-01-30T08:00:11;1.60;;;1.60;;
20699;SDS011;10511;51.232;9.420;2024-01-30T08:02:39;1.50;;;1.50;;
20699;SDS011;10511;51.232;9.420;2024-01-30T08:05:07;1.50;;;1.50;;
20699;SDS011;10511;51.232;9.420;2024-01-30T08:07:36;1.50;;;1.50;;
20699;SDS011;10511;51.232;9.420;2024-01-30T08:10:02;1.50;;;1.50;;
20699;SDS011;10511;51.232;9.420;2024-01-30T08:12:29;1.60;;;1.60;;
20699;SDS011;10511;51.232;9.420;2024-01-30T08:14:56;1.40;;;1.40;;
20699;SDS011;10511;51.232;9.420;2024-01-30T08:17:23;1.50;;;1.50;;
20699;SDS011;10511;51.232;9.420;2024-01-30T08:19:50;1.40;;;1.40;;
20699;SDS011;10511;51.232;9.420;2024-01-30T08:22:18;1.50;;;1.50;;
20699;SDS011;10511;51.232;9.420;2024-01-30T08:24:45;1.40;;;1.40;;
20699;SDS011;10511;51.232;9.420;2024-01-30T08:27:12;1.40;;;1.40;;
20699;SDS011;10511;51.232;9.420;2024-01-30T08:29:38;1.43;;;1.43;;
20699;SDS011;10511;51.232;9.420;2024-01-30T08:32:06;1.40;;;1.40;;
20699;SDS011;10511;51.232;9.420;2024-01-30T08:34:33;1.40;;;1.40;;
20699;SDS011;10511;51.232;9.420;2024-01-30T08:37:00;1.30;;;1.30;;
20699;SDS011;10511;51.232;9.420;2024-01-30T08:39:28;1.40;;;1.40;;
20699;SDS011;10511;51.232;9.420;2024-01-30T08:41:55;1.37;;;1.37;;
20699;SDS011;10511;51.232;9.420;2024-01-30T08:44:23;1.40;;;1.40;;
20699;SDS011;10511;51.232;9.420;2024-01-30T08:46:49;1.40;;;1.40;;
20699;SDS011;10511;51.232;9.420;2024-01-30T08:49:16;1.30;;;1.30;;
20699;SDS011;10511;51.232;9.420;2024-01-30T08:51:43;1.30;;;1.30;;
20699;SDS011;10511;51.232;9.420;2024-01-30T08:54:10;1.30;;;1.30;;
20699;SDS011;10511;51.232;9.420;2024-01-30T08:56:38;1.30;;;1.30;;
20699;SDS011;10511;51.232;9.420;2024-01-30T08:59:05;1.43;;;1.43;;
20699;SDS011;10511;51.232;9.420;2024-01-30T09:01:32;1.33;;;1.33;;
20699;SDS011;10511;51.232;9.420;2024-01-30T09:03:58;1.30;;;1.30;;
20699;SDS011;10511;51.232;9.420;2024-01-30T09:06:25;1.40;;;1.40;;
20699;SDS011;10511;51.232;9.420;2024-01-30T09:08:54;1.30;;;1.30;;
20699;SDS011;10511;51.232;9.420;2024-01-30T09:11:23;1.33;;;1.33;;
20699;SDS011;10511;51.232;9.420;2024-01-30T09:13:51;1.30;;;1.30;;
20699;SDS011;10511;51.232;9.420;2024-01-30T09:16:18;1.33;;;1.33;;
20699;SDS011;10511;51.232;9.420;2024-01-30T09:18:45;1.30;;;1.30;;
20699;SDS011;10511;51.232;9.420;2024-01-30T09:21:11;1.30;;;1.30;;
20699;SDS011;10511;51.232;9.420;2024-01-30T09:23:38;1.30;;;1.30;;
20699;SDS011;10511;51.232;9.420;2024-01-30T09:26:05;1.30;;;1.30;;
20699;SDS011;10511;51.232;9.420;2024-01-30T09:28:32;1.37;;;1.37;;
20699;SDS011;10511;51.232;9.420;2024-01-30T09:31:00;1.30;;;1.30;;
20699;SDS011;10511;51.232;9.420;2024-01-30T09:33:27;1.30;;;1.30;;
20699;SDS011;10511;51.232;9.420;2024-01-30T09:35:54;1.30;;;1.30;;
20699;SDS011;10511;51.232;9.420;2024-01-30T09:38:21;1.30;;;1.30;;
20699;SDS011;10511;51.232;9.420;2024-01-30T09:40:49;1.20;;;1.20;;
20699;SDS011;10511;51.232;9.420;2024-01-30T09:43:21;1.40;;;1.40;;
20699;SDS011;10511;51.232;9.420;2024-01-30T09:45:50;1.30;;;1.30;;
20699;SDS011;10511;51.232;9.420;2024-01-30T09:48:19;1.30;;;1.30;;
20699;SDS011;10511;51.232;9.420;2024-01-30T09:50:46;1.30;;;1.30;;
20699;SDS011;10511;51.232;9.420;2024-01-30T09:53:13;1.33;;;1.33;;
20699;SDS011;10511;51.232;9.420;2024-01-30T09:55:40;1.30;;;1.30;;
20699;SDS011;10511;51.232;9.420;2024-01-30T09:58:11;1.30;;;1.30;;
20699;SDS011;10511;51.232;9.420;2024-01-30T10:00:38;1.30;;;1.30;;
20699;SDS011;10511;51.232;9.420;2024-01-30T10:03:06;1.30;;;1.30;;
20699;SDS011;10511;51.232;9.420;2024-01-30T10:05:34;1.30;;;1.30;;
20699;SDS011;10511;51.232;9.420;2024-01-30T10:08:05;1.30;;;1.30;;
20699;SDS011;10511;51.232;9.420;2024-01-30T10:10:33;1.37;;;1.37;;
20699;SDS011;10511;51.232;9.420;2024-01-30T10:13:00;1.20;;;1.20;;
20699;SDS011;10511;51.232;9.420;2024-01-30T10:15:27;1.20;;;1.20;;
20699;SDS011;10511;51.232;9.420;2024-01-30T10:17:54;1.30;;;1.30;;
20699;SDS011;10511;51.232;9.420;2024-01-30T10:20:21;1.20;;;1.20;;
20699;SDS011;10511;51.232;9.420;2024-01-30T10:22:52;1.20;;;1.20;;
20699;SDS011;10511;51.232;9.420;2024-01-30T10:25:18;1.30;;;1.30;;
20699;SDS011;10511;51.232;9.420;2024-01-30T10:27:52;1.20;;;1.20;;
20699;SDS011;10511;51.232;9.420;2024-01-30T10:30:19;1.40;;;1.40;;
20699;SDS011;10511;51.232;9.420;2024-01-30T10:32:46;1.20;;;1.20;;
20699;SDS011;10511;51.232;9.420;2024-01-30T10:35:13;1.20;;;1.20;;
20699;SDS011;10511;51.232;9.420;2024-01-30T10:37:41;1.20;;;1.20;;
20699;SDS011;10511;51.232;9.420;2024-01-30T10:40:12;1.20;;;1.20;;
20699;SDS011;10511;51.232;9.420;2024-01-30T10:42:42;1.20;;;1.20;;
20699;SDS011;10511;51.232;9.420;2024-01-30T10:45:10;1.20;;;1.20;;
20699;SDS011;10511;51.232;9.420;2024-01-30T10:47:39;1.20;;;1.20;;
20699;SDS011;10511;51.232;9.420;2024-01-30T10:50:07;1.20;;;1.20;;
20699;SDS011;10511;51.232;9.420;2024-01-30T10:52:35;1.10;;;1.10;;
20699;SDS011;10511;51.232;9.420;2024-01-30T10:55:04;1.10;;;1.10;;
20699;SDS011;10511;51.232;9.420;2024-01-30T10:57:34;1.20;;;1.20;;
20699;SDS011;10511;51.232;9.420;2024-01-30T11:00:02;1.20;;;1.20;;
20699;SDS011;10511;51.232;9.420;2024-01-30T11:02:35;1.20;;;1.20;;
20699;SDS011;10511;51.232;9.420;2024-01-30T11:05:04;1.20;;;1.20;;
20699;SDS011;10511;51.232;9.420;2024-01-30T11:07:31;1.27;;;1.27;;
20699;SDS011;10511;51.232;9.420;2024-01-30T11:10:02;1.20;;;1.20;;
20699;SDS011;10511;51.232;9.420;2024-01-30T11:12:30;1.20;;;1.20;;
20699;SDS011;10511;51.232;9.420;2024-01-30T11:15:04;1.10;;;1.10;;
20699;SDS011;10511;51.232;9.420;2024-01-30T11:17:44;1.10;;;1.10;;
20699;SDS011;10511;51.232;9.420;2024-01-30T11:20:16;1.10;;;1.10;;
20699;SDS011;10511;51.232;9.420;2024-01-30T11:22:45;1.13;;;1.13;;
20699;SDS011;10511;51.232;9.420;2024-01-30T11:25:13;1.07;;;1.07;;
20699;SDS011;10511;51.232;9.420;2024-01-30T11:27:41;1.20;;;1.20;;
20699;SDS011;10511;51.232;9.420;2024-01-30T11:30:10;1.17;;;1.17;;
20699;SDS011;10511;51.232;9.420;2024-01-30T11:32:37;1.10;;;1.10;;
20699;SDS011;10511;51.232;9.420;2024-01-30T11:35:04;1.20;;;1.20;;
20699;SDS011;10511;51.232;9.420;2024-01-30T11:37:35;1.20;;;1.20;;
20699;SDS011;10511;51.232;9.420;2024-01-30T11:40:04;1.20;;;1.20;;
20699;SDS011;10511;51.232;9.420;2024-01-30T11:42:31;1.20;;;1.20;;
20699;SDS011;10511;51.232;9.420;2024-01-30T11:44:59;1.10;;;1.10;;
20699;SDS011;10511;51.232;9.420;2024-01-30T11:47:28;1.20;;;1.20;;
20699;SDS011;10511;51.232;9.420;2024-01-30T11:49:55;1.10;;;1.10;;
20699;SDS011;10511;51.232;9.420;2024-01-30T11:52:22;1.10;;;1.10;;
20699;SDS011;10511;51.232;9.420;2024-01-30T11:54:50;1.20;;;1.20;;
20699;SDS011;10511;51.232;9.420;2024-01-30T11:57:17;1.20;;;1.20;;
20699;SDS011;10511;51.232;9.420;2024-01-30T11:59:44;1.00;;;1.00;;
20699;SDS011;10511;51.232;9.420;2024-01-30T12:02:15;1.20;;;1.20;;
20699;SDS011;10511;51.232;9.420;2024-01-30T12:04:43;1.10;;;1.10;;
20699;SDS011;10511;51.232;9.420;2024-01-30T12:07:10;1.03;;;1.03;;
20699;SDS011;10511;51.232;9.420;2024-01-30T12:09:37;1.00;;;1.00;;
20699;SDS011;10511;51.232;9.420;2024-01-30T12:12:06;1.10;;;1.10;;
20699;SDS011;10511;51.232;9.420;2024-01-30T12:14:37;1.00;;;1.00;;
20699;SDS011;10511;51.232;9.420;2024-01-30T12:17:05;1.00;;;1.00;;
20699;SDS011;10511;51.232;9.420;2024-01-30T12:19:32;1.00;;;1.00;;
20699;SDS011;10511;51.232;9.420;2024-01-30T12:22:01;1.10;;;1.10;;
20699;SDS011;10511;51.232;9.420;2024-01-30T12:24:28;1.07;;;1.07;;
20699;SDS011;10511;51.232;9.420;2024-01-30T12:26:56;1.00;;;1.00;;
20699;SDS011;10511;51.232;9.420;2024-01-30T12:29:23;1.00;;;1.00;;
20699;SDS011;10511;51.232;9.420;2024-01-30T12:31:52;1.03;;;1.03;;
20699;SDS011;10511;51.232;9.420;2024-01-30T12:34:20;1.10;;;1.10;;
20699;SDS011;10511;51.232;9.420;2024-01-30T12:36:47;1.00;;;1.00;;
20699;SDS011;10511;51.232;9.420;2024-01-30T12:39:15;1.07;;;1.07;;
20699;SDS011;10511;51.232;9.420;2024-01-30T12:41:43;1.10;;;1.10;;
20699;SDS011;10511;51.232;9.420;2024-01-30T12:44:10;1.00;;;1.00;;
20699;SDS011;10511;51.232;9.420;2024-01-30T12:46:39;1.00;;;1.00;;
20699;SDS011;10511;51.232;9.420;2024-01-30T12:49:06;1.00;;;1.00;;
20699;SDS011;10511;51.232;9.420;2024-01-30T12:51:33;1.00;;;1.00;;
20699;SDS011;10511;51.232;9.420;2024-01-30T12:54:04;1.03;;;1.03;;
20699;SDS011;10511;51.232;9.420;2024-01-30T12:56:32;1.00;;;1.00;;
20699;SDS011;10511;51.232;9.420;2024-01-30T12:58:59;1.00;;;1.00;;
20699;SDS011;10511;51.232;9.420;2024-01-30T13:01:26;1.07;;;1.07;;
20699;SDS011;10511;51.232;9.420;2024-01-30T13:03:53;1.00;;;1.00;;
20699;SDS011;10511;51.232;9.420;2024-01-30T13:06:22;1.00;;;1.00;;
20699;SDS011;10511;51.232;9.420;2024-01-30T13:08:49;1.00;;;1.00;;
20699;SDS011;10511;51.232;9.420;2024-01-30T13:11:16;1.07;;;1.07;;
20699;SDS011;10511;51.232;9.420;2024-01-30T13:13:44;1.00;;;1.00;;
20699;SDS011;10511;51.232;9.420;2024-01-30T13:16:10;1.00;;;1.00;;
20699;SDS011;10511;51.232;9.420;2024-01-30T13:18:37;1.07;;;1.07;;
20699;SDS011;10511;51.232;9.420;2024-01-30T13:21:04;1.10;;;1.10;;
20699;SDS011;10511;51.232;9.420;2024-01-30T13:23:31;1.00;;;1.00;;
20699;SDS011;10511;51.232;9.420;2024-01-30T13:25:58;1.00;;;1.00;;
20699;SDS011;10511;51.232;9.420;2024-01-30T13:28:25;1.10;;;1.10;;
20699;SDS011;10511;51.232;9.420;2024-01-30T13:30:53;1.00;;;1.00;;
20699;SDS011;10511;51.232;9.420;2024-01-30T13:33:20;1.10;;;1.10;;
20699;SDS011;10511;51.232;9.420;2024-01-30T13:35:47;1.10;;;1.10;;
20699;SDS011;10511;51.232;9.420;2024-01-30T13:38:13;1.00;;;1.00;;
20699;SDS011;10511;51.232;9.420;2024-01-30T13:40:40;1.00;;;1.00;;
20699;SDS011;10511;51.232;9.420;2024-01-30T13:43:08;1.00;;;1.00;;
20699;SDS011;10511;51.232;9.420;2024-01-30T13:45:34;1.00;;;1.00;;
20699;SDS011;10511;51.232;9.420;2024-01-30T13:48:03;1.00;;;1.00;;
20699;SDS011;10511;51.232;9.420;2024-01-30T13:50:30;1.00;;;1.00;;
20699;SDS011;10511;51.232;9.420;2024-01-30T13:52:58;1.07;;;1.07;;
20699;SDS011;10511;51.232;9.420;2024-01-30T13:55:25;1.10;;;1.10;;
20699;SDS011;10511;51.232;9.420;2024-01-30T13:57:51;1.00;;;1.00;;
20699;SDS011;10511;51.232;9.420;2024-01-30T14:00:18;1.00;;;1.00;;
20699;SDS011;10511;51.232;9.420;2024-01-30T14:02:47;0.97;;;0.97;;
20699;SDS011;10511;51.232;9.420;2024-01-30T14:05:15;1.00;;;1.00;;
20699;SDS011;10511;51.232;9.420;2024-01-30T14:07:43;1.10;;;1.10;;
20699;SDS011;10511;51.232;9.420;2024-01-30T14:10:10;1.00;;;1.00;;
20699;SDS011;10511;51.232;9.420;2024-01-30T14:12:38;0.90;;;0.90;;
20699;SDS011;10511;51.232;9.420;2024-01-30T14:15:06;0.90;;;0.90;;
20699;SDS011;10511;51.232;9.420;2024-01-30T14:17:34;1.00;;;1.00;;
20699;SDS011;10511;51.232;9.420;2024-01-30T14:20:01;0.90;;;0.90;;
20699;SDS011;10511;51.232;9.420;2024-01-30T14:22:30;1.00;;;1.00;;
20699;SDS011;10511;51.232;9.420;2024-01-30T14:24:58;0.93;;;0.93;;
20699;SDS011;10511;51.232;9.420;2024-01-30T14:27:25;1.00;;;1.00;;
20699;SDS011;10511;51.232;9.420;2024-01-30T14:29:52;1.00;;;1.00;;
20699;SDS011;10511;51.232;9.420;2024-01-30T14:32:19;1.00;;;1.00;;
20699;SDS011;10511;51.232;9.420;2024-01-30T14:34:45;1.00;;;1.00;;
20699;SDS011;10511;51.232;9.420;2024-01-30T14:37:12;1.00;;;1.00;;
20699;SDS011;10511;51.232;9.420;2024-01-30T14:39:40;0.90;;;0.90;;
20699;SDS011;10511;51.232;9.420;2024-01-30T14:42:07;1.10;;;1.10;;
20699;SDS011;10511;51.232;9.420;2024-01-30T14:44:35;1.00;;;1.00;;
20699;SDS011;10511;51.232;9.420;2024-01-30T14:47:02;1.00;;;1.00;;
20699;SDS011;10511;51.232;9.420;2024-01-30T14:49:29;1.00;;;1.00;;